Time;durP1;ratioP1;P1;durP2;ratioP2;P2;SDS_P1;SDS_P2;PMS_P1;PMS_P2;Temp;Humidity;BMP_temperature;BMP_pressure;BME280_temperature;BME280_humidity;BME280_pressure;Samples;Min_cycle;Max_cycle;Signal;HPM_P1;HPM_P2
2021/04/11 00:01:37;;;;;;;56.92;29.75;;;231.30;1433.60;;;;;;5075662;28;20365;-70
2021/04/11 00:04:04;;;;;;;52.10;28.70;;;231.30;1408.00;;;;;;5075684;28;20361;-71
2021/04/11 00:06:30;;;;;;;53.85;29.85;;;231.30;1433.60;;;;;;5075602;28;20368;-70
2021/04/11 00:08:57;;;;;;;53.25;29.23;;;231.30;1433.60;;;;;;5075612;28;20488;-70
2021/04/11 00:11:23;;;;;;;49.97;28.65;;;256.00;1433.60;;;;;;5075782;28;20432;-70
2021/04/11 00:13:54;;;;;;;48.67;27.58;;;231.30;1433.60;;;;;;5075499;28;20032;-71
2021/04/11 00:16:22;;;;;;;55.88;29.63;;;256.00;1459.20;;;;;;5075525;28;20449;-71
2021/04/11 00:18:48;;;;;;;66.72;34.60;;;256.00;1459.20;;;;;;5075393;28;20457;-71
2021/04/11 00:21:15;;;;;;;59.47;33.15;;;256.00;1433.60;;;;;;5075402;28;20461;-70
2021/04/11 00:23:41;;;;;;;70.40;38.13;;;256.00;1459.20;;;;;;5075245;28;20388;-70
2021/04/11 00:26:07;;;;;;;65.18;37.88;;;256.10;1459.20;;;;;;5075304;28;20346;-70
2021/04/11 00:28:33;;;;;;;63.30;34.03;;;256.00;1459.20;;;;;;5075290;28;20455;-71
2021/04/11 00:31:00;;;;;;;58.45;32.90;;;256.00;1433.60;;;;;;5075393;28;20366;-70
2021/04/11 00:33:33;;;;;;;50.95;29.42;;;256.10;1459.20;;;;;;5075395;28;20365;-71
2021/04/11 00:36:08;;;;;;;53.67;30.23;;;256.10;1433.60;;;;;;5075099;28;20369;-70
2021/04/11 00:38:35;;;;;;;63.72;34.70;;;256.10;1433.60;;;;;;5074976;28;20400;-70
2021/04/11 00:41:14;;;;;;;51.60;30.38;;;256.20;1433.60;;;;;;5074943;28;20346;-70
2021/04/11 00:43:42;;;;;;;58.63;30.67;;;256.10;1433.60;;;;;;5074953;28;20469;-70
2021/04/11 00:46:20;;;;;;;57.13;31.65;;;256.20;1408.00;;;;;;5075123;28;20361;-71
2021/04/11 00:48:48;;;;;;;58.90;31.23;;;256.10;1433.60;;;;;;5056936;28;20369;-70
2021/04/11 00:51:17;;;;;;;53.72;30.40;;;256.20;1433.60;;;;;;5074993;28;20480;-70
2021/04/11 00:53:46;;;;;;;52.30;30.48;;;256.10;1433.60;;;;;;5074661;28;20464;-70
2021/04/11 00:56:13;;;;;;;57.25;31.73;;;256.00;1433.60;;;;;;5074659;28;20540;-69
2021/04/11 00:58:41;;;;;;;67.25;39.08;;;256.10;1433.60;;;;;;5073796;28;20339;-71
2021/04/11 01:01:07;;;;;;;78.22;41.78;;;256.00;1433.60;;;;;;5074546;28;20021;-71
2021/04/11 01:03:39;;;;;;;72.38;38.50;;;256.00;1433.60;;;;;;5074870;28;20356;-70
2021/04/11 01:06:14;;;;;;;81.55;40.80;;;231.30;1433.60;;;;;;5074846;28;20534;-70
2021/04/11 01:08:40;;;;;;;74.65;39.45;;;231.30;1408.00;;;;;;5074458;28;20364;-70
2021/04/11 01:11:13;;;;;;;57.55;31.92;;;231.30;1408.00;;;;;;5074866;28;20037;-70
2021/04/11 01:13:53;;;;;;;53.42;29.17;;;231.20;1433.60;;;;;;5074324;28;20448;-70
2021/04/11 01:16:20;;;;;;;55.20;28.95;;;231.10;1459.20;;;;;;5074243;28;20510;-70
2021/04/11 01:18:47;;;;;;;50.33;26.95;;;231.00;1459.20;;;;;;5074314;28;20371;-71
2021/04/11 01:21:48;;;;;;;48.42;25.77;;;231.00;1459.20;;;;;;5074774;28;20432;-70
2021/04/11 01:24:22;;;;;;;51.70;26.20;;;231.00;1459.20;;;;;;5074195;28;20032;-71
2021/04/11 01:26:53;;;;;;;40.33;23.05;;;231.00;1459.20;;;;;;5056317;28;20346;-71
2021/04/11 01:29:22;;;;;;;57.92;30.13;;;231.10;1459.20;;;;;;5074021;28;20350;-70
2021/04/11 01:31:49;;;;;;;48.40;24.45;;;231.10;1459.20;;;;;;5074013;28;20372;-71
2021/04/11 01:34:16;;;;;;;38.05;21.38;;;231.00;1459.20;;;;;;5073989;28;20392;-71
2021/04/11 01:36:44;;;;;;;49.80;27.10;;;231.10;1459.20;;;;;;5073925;28;20457;-71
2021/04/11 01:39:25;;;;;;;33.60;20.17;;;231.20;1459.20;;;;;;5074438;28;20020;-71
2021/04/11 01:41:53;;;;;;;31.77;17.95;;;231.10;1459.20;;;;;;5073850;28;20403;-71
2021/04/11 01:44:22;;;;;;;35.35;17.20;;;231.00;1408.00;;;;;;5073713;28;20535;-70
2021/04/11 01:46:48;;;;;;;28.85;17.23;;;231.10;1408.00;;;;;;5073706;28;20338;-72
2021/04/11 01:49:19;;;;;;;36.03;18.35;;;231.00;1408.00;;;;;;5073588;28;20461;-70
2021/04/11 01:51:53;;;;;;;38.40;19.90;;;231.00;1408.00;;;;;;5074743;28;20368;-71
2021/04/11 01:54:24;;;;;;;31.38;18.38;;;231.00;1433.60;;;;;;5073686;28;20455;-71
2021/04/11 01:56:50;;;;;;;27.17;15.82;;;231.00;1433.60;;;;;;5073937;28;20054;-70
2021/04/11 01:59:19;;;;;;;39.88;21.17;;;231.00;1433.60;;;;;;5073607;28;20361;-71
2021/04/11 02:01:49;;;;;;;40.53;22.95;;;231.00;1459.20;;;;;;5073819;28;20384;-70
2021/04/11 02:04:15;;;;;;;31.50;17.13;;;231.00;1459.20;;;;;;5073456;28;20372;-71
2021/04/11 02:06:55;;;;;;;32.70;16.55;;;230.90;1459.20;;;;;;5073755;28;20439;-70
2021/04/11 02:09:26;;;;;;;29.77;17.08;;;231.00;1433.60;;;;;;5073419;28;20365;-71
2021/04/11 02:11:53;;;;;;;35.35;17.35;;;231.00;1433.60;;;;;;5073815;28;20027;-70
2021/04/11 02:14:19;;;;;;;35.95;18.55;;;231.00;1408.00;;;;;;5073392;28;20379;-71
2021/04/11 02:16:45;;;;;;;33.67;19.13;;;231.00;1433.60;;;;;;5073663;28;20357;-71
2021/04/11 02:19:21;;;;;;;40.88;18.73;;;231.00;1459.20;;;;;;5073285;28;20370;-70
2021/04/11 02:21:56;;;;;;;36.65;17.95;;;231.00;1459.20;;;;;;5073202;28;20017;-70
2021/04/11 02:24:23;;;;;;;28.70;17.55;;;230.90;1484.80;;;;;;5073333;28;20377;-71
2021/04/11 02:26:49;;;;;;;36.50;19.17;;;231.00;1484.80;;;;;;5073503;28;20027;-71
2021/04/11 02:29:24;;;;;;;33.25;18.75;;;231.00;1484.80;;;;;;5073500;28;20342;-71
2021/04/11 02:31:51;;;;;;;31.05;17.98;;;231.00;1484.80;;;;;;5073264;28;20432;-71
2021/04/11 02:34:28;;;;;;;31.13;19.13;;;230.90;1510.40;;;;;;5073233;28;20396;-70
2021/04/11 02:37:14;;;;;;;38.38;18.88;;;230.80;1510.40;;;;;;5073187;28;20346;-70
2021/04/11 02:39:43;;;;;;;28.90;17.83;;;230.70;1510.40;;;;;;5073097;28;20457;-71
2021/04/11 02:42:21;;;;;;;36.05;17.65;;;230.80;1510.40;;;;;;5073690;28;20406;-70
2021/04/11 02:44:49;;;;;;;37.70;18.35;;;230.80;1510.40;;;;;;5073157;28;20027;-72
2021/04/11 02:47:16;;;;;;;37.15;16.65;;;230.80;1484.80;;;;;;5073335;28;20360;-70
2021/04/11 02:49:45;;;;;;;34.40;16.80;;;230.70;1484.80;;;;;;5072911;28;20365;-70
2021/04/11 02:52:26;;;;;;;33.80;18.15;;;230.70;1484.80;;;;;;5072992;28;20372;-69
2021/04/11 02:54:54;;;;;;;35.60;17.83;;;230.70;1484.80;;;;;;5073109;28;20516;-70
2021/04/11 02:57:21;;;;;;;32.80;17.27;;;230.80;1510.40;;;;;;5073606;28;20475;-69
2021/04/11 02:59:51;;;;;;;37.55;19.13;;;230.70;1510.40;;;;;;5072964;28;20488;-70
2021/04/11 03:02:17;;;;;;;33.45;17.65;;;230.70;1536.00;;;;;;5073314;28;20456;-69
2021/04/11 03:04:43;;;;;;;28.23;17.52;;;230.70;1510.40;;;;;;5072909;28;20035;-71
2021/04/11 03:07:18;;;;;;;29.98;18.48;;;230.70;1510.40;;;;;;5072883;28;20530;-71
2021/04/11 03:10:01;;;;;;;37.85;18.45;;;230.70;1510.40;;;;;;5073098;28;20356;-70
2021/04/11 03:12:27;;;;;;;34.92;18.15;;;230.70;1510.40;;;;;;5072867;28;20381;-71
2021/04/11 03:14:56;;;;;;;37.38;19.33;;;230.70;1510.40;;;;;;5072754;28;20367;-70
2021/04/11 03:17:24;;;;;;;35.53;19.23;;;230.70;1536.00;;;;;;5072785;28;20027;-70
2021/04/11 03:19:57;;;;;;;34.20;16.88;;;230.70;1510.40;;;;;;5072728;28;20365;-71
2021/04/11 03:22:23;;;;;;;;;;;230.70;1484.80;;;;;;5073998;28;20362;-71
2021/04/11 03:24:51;;;;;;;32.47;17.15;;;230.70;1459.20;;;;;;5076462;28;19908;-71
2021/04/11 03:27:24;;;;;;;25.58;16.30;;;230.70;1459.20;;;;;;5077040;28;20522;-71
2021/04/11 03:30:02;;;;;;;29.65;16.42;;;230.70;1459.20;;;;;;5076257;28;20468;-71
2021/04/11 03:32:40;;;;;;;28.55;16.15;;;230.70;1459.20;;;;;;5076287;28;20455;-71
2021/04/11 03:35:10;;;;;;;40.13;18.52;;;230.70;1459.20;;;;;;5076617;28;20395;-70
2021/04/11 03:37:39;;;;;;;28.20;18.15;;;230.70;1484.80;;;;;;5076456;28;20354;-71
2021/04/11 03:40:09;;;;;;;36.33;19.15;;;230.70;1510.40;;;;;;5076093;28;20411;-71
2021/04/11 03:42:38;;;;;;;30.85;17.45;;;230.60;1510.40;;;;;;5076425;28;20353;-70
2021/04/11 03:45:05;;;;;;;29.90;17.67;;;230.60;1510.40;;;;;;5076352;28;20357;-71
2021/04/11 03:47:51;;;;;;;33.58;18.23;;;230.60;1510.40;;;;;;5076078;28;20499;-70
2021/04/11 03:50:24;;;;;;;38.35;18.48;;;230.60;1536.00;;;;;;5075929;28;20455;-71
2021/04/11 03:53:04;;;;;;;68.05;37.05;;;230.50;1561.60;;;;;;5075951;28;20376;-71
2021/04/11 03:55:34;;;;;;;58.55;31.90;;;230.40;1536.00;;;;;;5075927;28;20420;-70
2021/04/11 03:58:09;;;;;;;68.25;36.15;;;205.70;1561.60;;;;;;5075805;28;20452;-71
2021/04/11 04:00:49;;;;;;;71.32;37.05;;;205.70;1561.60;;;;;;5076583;28;20358;-71
2021/04/11 04:03:20;;;;;;;69.85;38.70;;;205.70;1561.60;;;;;;5075742;28;20342;-71
2021/04/11 04:05:48;;;;;;;65.20;34.65;;;205.70;1561.60;;;;;;5076048;28;20393;-70
2021/04/11 04:08:14;;;;;;;47.60;25.55;;;205.70;1561.60;;;;;;5075644;28;20586;-71
2021/04/11 04:10:44;;;;;;;39.05;21.23;;;230.40;1536.00;;;;;;5076139;28;20421;-70
2021/04/11 04:13:41;;;;;;;33.30;18.75;;;230.40;1536.00;;;;;;5076078;28;20364;-70
2021/04/11 04:16:37;;;;;;;32.25;18.38;;;230.50;1510.40;;;;;;5075857;28;20357;-70
2021/04/11 04:19:12;;;;;;;32.78;17.80;;;230.60;1510.40;;;;;;5075465;28;20411;-71
2021/04/11 04:21:58;;;;;;;38.65;22.60;;;230.60;1510.40;;;;;;5075229;28;20357;-71
2021/04/11 04:24:56;;;;;;;44.42;22.75;;;230.60;1510.40;;;;;;5075405;28;20385;-71
2021/04/11 04:27:39;;;;;;;42.42;21.58;;;230.60;1561.60;;;;;;5075297;28;20542;-71
2021/04/11 04:30:17;;;;;;;44.30;26.02;;;230.50;1536.00;;;;;;5075190;28;20477;-71
2021/04/11 04:33:07;;;;;;;37.72;23.90;;;230.60;1536.00;;;;;;5075375;28;20377;-71
2021/04/11 04:35:45;;;;;;;43.95;22.77;;;230.50;1536.00;;;;;;5075466;28;20389;-71
2021/04/11 04:38:36;;;;;;;40.05;21.90;;;230.50;1536.00;;;;;;5075102;28;20470;-70
2021/04/11 04:41:14;;;;;;;39.95;21.60;;;230.50;1536.00;;;;;;5075309;28;20342;-71
2021/04/11 04:43:51;;;;;;;32.67;20.42;;;230.60;1561.60;;;;;;5075014;28;20373;-70
2021/04/11 04:46:36;;;;;;;41.88;23.35;;;230.60;1561.60;;;;;;5075257;28;20399;-71
2021/04/11 04:49:35;;;;;;;42.42;24.17;;;230.70;1536.00;;;;;;5074947;28;20424;-70
2021/04/11 04:52:11;;;;;;;45.67;25.58;;;230.80;1561.60;;;;;;5074394;28;20040;-70
2021/04/11 04:55:05;;;;;;;57.47;30.33;;;230.80;1536.00;;;;;;5074852;28;20334;-71
2021/04/11 04:57:50;;;;;;;67.07;37.95;;;230.90;1536.00;;;;;;5074653;28;20433;-70
2021/04/11 05:00:29;;;;;;;85.63;45.83;;;230.90;1536.00;;;;;;5074608;28;20369;-71
2021/04/11 05:03:10;;;;;;;58.00;31.95;;;231.00;1536.00;;;;;;5074636;28;20399;-71
2021/04/11 05:06:03;;;;;;;56.22;32.78;;;231.10;1510.40;;;;;;5074578;28;20361;-70
2021/04/11 05:08:48;;;;;;;55.40;29.45;;;231.10;1536.00;;;;;;5063552;28;20472;-71
2021/04/11 05:11:33;;;;;;;52.45;29.45;;;231.10;1510.40;;;;;;5074626;28;20342;-71
2021/04/11 05:14:13;;;;;;;55.45;31.52;;;231.20;1510.40;;;;;;5074410;28;20418;-71
2021/04/11 05:16:53;;;;;;;47.80;25.90;;;231.20;1510.40;;;;;;5074440;28;20396;-71
2021/04/11 05:19:24;;;;;;;41.90;24.40;;;231.20;1510.40;;;;;;5074286;28;20528;-70
2021/04/11 05:21:59;;;;;;;39.53;20.55;;;231.30;1510.40;;;;;;5073911;28;20427;-72
2021/04/11 05:24:30;;;;;;;41.72;21.63;;;256.00;1510.40;;;;;;5074174;28;20071;-71
2021/04/11 05:27:24;;;;;;;39.83;20.45;;;256.00;1510.40;;;;;;5074415;28;20353;-71
2021/04/11 05:30:28;;;;;;;38.42;21.48;;;256.20;1459.20;;;;;;5074041;28;20424;-71
2021/04/11 05:32:54;;;;;;;39.25;21.63;;;256.40;1433.60;;;;;;5073953;28;20052;-71
2021/04/11 05:35:21;;;;;;;40.33;22.98;;;256.60;1433.60;;;;;;5074018;28;20457;-70
2021/04/11 05:38:12;;;;;;;37.75;22.13;;;256.60;1433.60;;;;;;5073889;28;20392;-71
2021/04/11 05:40:52;;;;;;;36.67;20.88;;;256.80;1408.00;;;;;;5073820;28;20389;-71
2021/04/11 05:43:27;;;;;;;34.05;19.05;;;256.90;1408.00;;;;;;5073784;28;20354;-72
2021/04/11 05:46:11;;;;;;;40.45;22.77;;;281.70;1433.60;;;;;;5073917;28;20418;-71
2021/04/11 05:48:41;;;;;;;;;;;281.80;1433.60;;;;;;5074468;28;20353;-70
2021/04/11 05:51:21;;;;;;;36.42;23.13;;;281.90;1433.60;;;;;;5073628;28;20268;-71
2021/04/11 05:53:55;;;;;;;50.72;25.67;;;282.00;1408.00;;;;;;5073633;28;20399;-71
2021/04/11 05:56:43;;;;;;;81.88;33.80;;;282.20;1382.40;;;;;;5073908;28;20460;-70
2021/04/11 05:59:25;;;;;;;70.65;28.40;;;307.20;1382.40;;;;;;5073585;28;20361;-71
2021/04/11 06:01:57;;;;;;;60.40;26.67;;;307.50;1382.40;;;;;;5073568;28;20377;-71
2021/04/11 06:04:46;;;;;;;57.65;26.73;;;307.70;1356.80;;;;;;5073538;28;20028;-71
2021/04/11 06:07:38;;;;;;;46.65;23.00;;;307.90;1331.20;;;;;;5073442;28;20372;-70
2021/04/11 06:13:38;;;;;;;52.10;26.02;;;384.10;1177.60;;;;;;5073535;28;20024;-71
2021/04/11 06:16:11;;;;;;;50.53;25.92;;;435.50;1024.00;;;;;;5073357;28;20388;-70
2021/04/11 06:18:47;;;;;;;50.67;25.80;;;460.80;998.40;;;;;;5073331;28;20433;-71
2021/04/11 06:21:31;;;;;;;54.20;30.50;;;486.90;870.40;;;;;;5073331;28;20334;-69
2021/04/11 06:24:09;;;;;;;;;;;512.10;844.80;;;;;;5073596;28;20434;-70
2021/04/11 06:26:48;;;;;;;31.15;21.38;;;512.00;844.80;;;;;;5073589;28;19927;-70
2021/04/11 06:29:24;;;;;;;28.45;18.35;;;487.30;844.80;;;;;;5073860;28;20342;-70
2021/04/11 06:32:02;;;;;;;27.05;17.73;;;512.80;819.20;;;;;;5073267;28;20562;-72
2021/04/11 06:34:53;;;;;;;23.67;16.00;;;589.00;742.40;;;;;;5073193;28;20020;-70
2021/04/11 06:37:21;;;;;;;25.38;15.55;;;563.40;768.00;;;;;;5073281;28;20376;-72
2021/04/11 06:39:49;;;;;;;22.77;16.05;;;614.40;716.80;;;;;;5073242;28;20374;-72
2021/04/11 06:42:47;;;;;;;30.40;16.52;;;614.50;716.80;;;;;;5073733;28;20356;-71
2021/04/11 06:45:28;;;;;;;24.00;15.52;;;640.20;640.00;;;;;;5073251;28;20368;-70
2021/04/11 06:48:35;;;;;;;19.98;14.75;;;640.40;588.80;;;;;;5073184;28;20357;-70
2021/04/11 06:51:24;;;;;;;23.25;14.02;;;614.60;665.60;;;;;;5073017;28;20380;-71
2021/04/11 06:54:13;;;;;;;24.88;15.45;;;589.00;716.80;;;;;;5073262;28;20361;-70
2021/04/11 06:57:17;;;;;;;30.48;14.60;;;538.40;742.40;;;;;;5062265;28;20552;-72
2021/04/11 06:59:46;;;;;;;23.70;14.40;;;512.40;768.00;;;;;;4995913;28;20471;-72
2021/04/11 07:02:39;;;;;;;31.13;16.17;;;512.10;793.60;;;;;;4996298;28;20329;-72
2021/04/11 07:05:23;;;;;;;28.60;15.00;;;487.10;819.20;;;;;;4996089;28;20476;-71
2021/04/11 07:08:01;;;;;;;28.25;16.08;;;486.80;870.40;;;;;;4995949;28;20672;-72
2021/04/11 07:10:27;;;;;;;24.25;15.15;;;461.70;896.00;;;;;;4995763;28;20038;-71
2021/04/11 07:13:34;;;;;;;25.10;16.42;;;461.50;896.00;;;;;;4995562;28;20026;-72
2021/04/11 07:16:36;;;;;;;25.08;14.88;;;461.20;947.20;;;;;;4995774;28;20443;-70
2021/04/11 07:19:17;;;;;;;25.63;16.48;;;461.30;947.20;;;;;;4995441;28;20476;-70
2021/04/11 07:22:09;;;;;;;27.73;16.60;;;461.40;947.20;;;;;;4995130;28;20395;-71
2021/04/11 07:25:01;;;;;;;31.33;18.38;;;461.30;921.60;;;;;;4995274;28;20049;-70
2021/04/11 07:27:48;;;;;;;32.25;18.42;;;461.10;947.20;;;;;;4995240;28;20392;-73
2021/04/11 07:30:57;;;;;;;31.88;16.58;;;461.20;947.20;;;;;;4995168;28;20376;-70
2021/04/11 07:34:03;;;;;;;22.88;14.27;;;461.50;921.60;;;;;;4982349;28;20402;-69
2021/04/11 07:37:06;;;;;;;39.50;13.07;;;486.40;921.60;;;;;;5056345;28;20438;-71
2021/04/11 07:39:32;;;;;;;23.27;11.18;;;486.40;896.00;;;;;;5056493;28;20404;-70
2021/04/11 07:42:30;;;;;;;19.92;10.95;;;486.60;921.60;;;;;;5056181;28;20547;-71
2021/04/11 07:45:10;;;;;;;16.20;9.35;;;486.60;870.40;;;;;;5056728;28;20362;-71
2021/04/11 07:48:06;;;;;;;20.63;10.55;;;486.80;819.20;;;;;;5056103;28;20430;-72
2021/04/11 07:51:09;;;;;;;18.50;11.02;;;486.80;819.20;;;;;;5056414;28;20445;-71
2021/04/11 07:54:01;;;;;;;18.40;12.25;;;486.80;844.80;;;;;;5056090;28;20466;-68
2021/04/11 07:56:41;;;;;;;69.38;35.88;;;486.80;819.20;;;;;;5045224;28;20385;-69
2021/04/11 07:59:23;;;;;;;29.52;18.35;;;486.60;819.20;;;;;;5056352;28;20370;-69
2021/04/11 08:02:16;;;;;;;25.17;13.07;;;486.60;844.80;;;;;;5038122;28;20028;-70
2021/04/11 08:05:09;;;;;;;35.67;12.35;;;486.70;870.40;;;;;;5055879;28;20357;-71
2021/04/11 08:08:19;;;;;;;44.03;15.55;;;486.60;896.00;;;;;;5055979;28;20021;-69
2021/04/11 08:11:10;;;;;;;18.05;11.90;;;486.90;870.40;;;;;;5055805;28;20362;-71
2021/04/11 08:13:54;;;;;;;21.80;11.48;;;486.90;844.80;;;;;;5055678;28;20467;-73
2021/04/11 08:16:49;;;;;;;17.90;10.95;;;487.00;844.80;;;;;;5055797;28;20335;-73
2021/04/11 08:19:58;;;;;;;23.00;10.77;;;487.00;870.40;;;;;;5038540;28;20428;-72
2021/04/11 08:22:54;;;;;;;18.63;11.15;;;486.90;844.80;;;;;;5062345;28;20408;-71
2021/04/11 08:25:49;;;;;;;16.58;9.90;;;486.90;870.40;;;;;;5075488;28;20350;-71
2021/04/11 08:28:21;;;;;;;17.42;9.32;;;486.90;844.80;;;;;;5075446;28;20360;-72
2021/04/11 08:31:06;;;;;;;16.58;9.32;;;486.90;896.00;;;;;;5076035;28;20090;-73
2021/04/11 08:34:09;;;;;;;15.48;9.68;;;487.10;844.80;;;;;;5075472;28;20403;-72
2021/04/11 08:36:38;;;;;;;17.52;8.60;;;487.10;844.80;;;;;;5075324;28;20391;-72
2021/04/11 08:39:29;;;;;;;18.05;8.00;;;487.20;870.40;;;;;;5075335;28;20465;-71
2021/04/11 08:42:42;;;;;;;14.52;8.23;;;487.20;819.20;;;;;;5075551;28;20353;-73
2021/04/11 08:45:16;;;;;;;15.85;8.35;;;487.30;819.20;;;;;;4993889;28;20410;-71
2021/04/11 08:47:53;;;;;;;;;;;487.30;819.20;;;;;;4978004;28;20406;-70
2021/04/11 08:50:39;;;;;;;14.55;8.38;;;487.30;844.80;;;;;;4994014;28;20305;-70
2021/04/11 08:53:25;;;;;;;119.20;16.45;;;487.30;844.80;;;;;;4994054;28;20411;-71
2021/04/11 08:56:24;;;;;;;181.43;16.65;;;487.30;870.40;;;;;;4993627;28;20382;-73
2021/04/11 08:59:09;;;;;;;107.18;14.10;;;487.20;768.00;;;;;;4993866;28;20450;-73
2021/04/11 09:01:43;;;;;;;179.25;23.77;;;487.20;793.60;;;;;;4993484;28;20518;-73
2021/04/11 09:04:19;;;;;;;37.17;10.68;;;512.00;793.60;;;;;;4993461;28;20379;-72
2021/04/11 09:07:22;;;;;;;135.13;19.17;;;512.20;793.60;;;;;;4993697;28;20018;-73
2021/04/11 09:10:21;;;;;;;41.15;8.77;;;512.40;819.20;;;;;;4993538;28;20341;-73
2021/04/11 09:13:18;;;;;;;18.42;9.23;;;512.70;793.60;;;;;;4993938;28;20340;-73
2021/04/11 09:15:54;;;;;;;16.77;9.27;;;512.80;793.60;;;;;;4993635;28;20449;-73
2021/04/11 09:18:48;;;;;;;18.25;8.43;;;512.80;793.60;;;;;;4993190;28;20457;-71
2021/04/11 09:21:48;;;;;;;16.70;8.15;;;512.80;768.00;;;;;;5008631;28;20376;-70
2021/04/11 09:24:41;;;;;;;15.35;8.18;;;512.70;768.00;;;;;;5074620;28;20373;-72
2021/04/11 09:27:42;;;;;;;16.95;7.50;;;512.50;768.00;;;;;;5074522;28;20369;-72
2021/04/11 09:30:44;;;;;;;17.33;8.52;;;512.20;768.00;;;;;;5057899;28;20376;-72
2021/04/11 09:33:31;;;;;;;22.75;10.18;;;512.10;793.60;;;;;;5074179;28;20111;-70
2021/04/11 09:36:26;;;;;;;19.67;9.77;;;512.00;742.40;;;;;;5074150;28;20373;-71
2021/04/11 09:39:02;;;;;;;14.50;8.73;;;512.10;768.00;;;;;;5074122;28;20431;-71
2021/04/11 09:41:46;;;;;;;15.82;9.25;;;512.10;793.60;;;;;;5074375;28;20465;-71
2021/04/11 09:44:40;;;;;;;12.20;7.50;;;512.10;768.00;;;;;;5074651;28;20021;-71
2021/04/11 09:47:51;;;;;;;12.30;7.88;;;512.10;768.00;;;;;;5069826;28;20369;-71
2021/04/11 09:50:52;;;;;;;14.65;6.38;;;512.10;768.00;;;;;;5032100;28;20445;-71
2021/04/11 09:53:56;;;;;;;17.63;9.65;;;512.00;768.00;;;;;;4973098;28;20389;-70
2021/04/11 09:56:48;;;;;;;13.07;6.93;;;487.30;768.00;;;;;;4991922;28;20463;-71
2021/04/11 09:59:28;;;;;;;15.38;6.95;;;487.20;793.60;;;;;;4992509;28;20508;-70
2021/04/11 10:02:17;;;;;;;12.52;6.65;;;487.30;793.60;;;;;;4992384;28;20386;-71
2021/04/11 10:05:01;;;;;;;13.32;8.43;;;487.20;768.00;;;;;;4992433;28;20379;-70
2021/04/11 10:07:43;;;;;;;13.68;8.60;;;487.20;793.60;;;;;;4992375;28;20415;-71
2021/04/11 10:10:09;;;;;;;9.48;5.93;;;487.10;768.00;;;;;;4992664;28;20376;-70
2021/04/11 10:12:59;;;;;;;11.82;5.90;;;487.10;768.00;;;;;;4992199;28;20018;-78
2021/04/11 10:15:31;;;;;;;15.50;6.30;;;487.10;768.00;;;;;;4992639;28;20411;-81
2021/04/11 10:18:15;;;;;;;15.00;5.68;;;486.90;768.00;;;;;;4976297;28;20372;-82
2021/04/11 10:20:58;;;;;;;10.30;5.60;;;486.90;768.00;;;;;;4992735;28;20414;-83
2021/04/11 10:24:10;;;;;;;13.00;6.03;;;487.10;793.60;;;;;;4992604;28;20394;-73
2021/04/11 10:26:56;;;;;;;14.15;5.90;;;486.90;768.00;;;;;;4993407;28;20426;-83
2021/04/11 10:29:25;;;;;;;11.82;5.50;;;486.90;819.20;;;;;;5049329;28;20372;-72
2021/04/11 10:32:07;;;;;;;16.00;5.88;;;486.90;819.20;;;;;;5073521;28;20453;-75
2021/04/11 10:34:45;;;;;;;10.57;5.80;;;486.90;768.00;;;;;;5073395;28;20338;-74
2021/04/11 10:37:26;;;;;;;9.75;4.93;;;487.00;819.20;;;;;;5073473;28;20377;-78
2021/04/11 10:40:28;;;;;;;12.55;5.60;;;486.90;793.60;;;;;;5073668;28;20353;-75
2021/04/11 10:43:28;;;;;;;11.25;5.15;;;487.00;793.60;;;;;;5064479;28;20384;-75
2021/04/11 10:46:01;;;;;;;9.48;5.90;;;486.90;768.00;;;;;;5073490;28;20361;-73
2021/04/11 10:48:42;;;;;;;14.68;8.40;;;486.90;793.60;;;;;;5073135;28;20369;-71
2021/04/11 10:51:45;;;;;;;12.23;5.85;;;486.90;768.00;;;;;;5073056;28;20381;-73
2021/04/11 10:54:19;;;;;;;9.75;6.20;;;487.00;768.00;;;;;;5073009;28;20437;-71
2021/04/11 10:57:10;;;;;;;13.55;6.22;;;487.10;793.60;;;;;;5073497;28;20365;-74
2021/04/11 10:59:54;;;;;;;12.35;5.97;;;487.10;768.00;;;;;;5073077;28;20453;-72
2021/04/11 11:02:48;;;;;;;15.32;8.50;;;487.10;768.00;;;;;;5073676;28;20330;-73
2021/04/11 11:05:32;;;;;;;;;;;487.20;768.00;;;;;;5074095;28;20412;-74
2021/04/11 11:08:25;;;;;;;12.70;5.50;;;487.20;793.60;;;;;;5072933;28;20280;-75
2021/04/11 11:11:29;;;;;;;15.47;7.03;;;487.10;742.40;;;;;;5073341;28;20380;-74
2021/04/11 11:14:10;;;;;;;16.90;7.15;;;487.10;793.60;;;;;;5073013;28;20361;-75
2021/04/11 11:17:15;;;;;;;25.80;11.73;;;487.10;793.60;;;;;;5073235;28;20358;-73
2021/04/11 11:20:08;;;;;;;13.52;5.43;;;487.10;793.60;;;;;;5073338;28;20392;-75
2021/04/11 11:23:00;;;;;;;8.32;4.15;;;487.10;742.40;;;;;;5072785;28;20358;-76
2021/04/11 11:25:48;;;;;;;14.60;5.70;;;487.10;742.40;;;;;;5072778;28;20338;-74
2021/04/11 11:28:44;;;;;;;10.27;3.67;;;486.90;716.80;;;;;;5055187;28;20488;-71
2021/04/11 11:31:47;;;;;;;11.88;4.35;;;486.90;716.80;;;;;;5073104;28;20447;-75
2021/04/11 11:34:31;;;;;;;17.48;9.52;;;486.90;742.40;;;;;;5073705;28;20353;-74
2021/04/11 11:37:15;;;;;;;;;;;486.80;742.40;;;;;;5073538;28;20021;-75
2021/04/11 11:40:11;;;;;;;15.68;4.88;;;486.80;742.40;;;;;;5072701;28;20253;-72
2021/04/11 11:42:59;;;;;;;12.73;4.85;;;486.80;768.00;;;;;;5072687;28;20365;-75
2021/04/11 11:45:39;;;;;;;12.77;4.45;;;486.70;742.40;;;;;;5076278;28;20377;-77
2021/04/11 11:48:11;;;;;;;8.52;4.57;;;486.60;742.40;;;;;;5076474;28;20406;-73
2021/04/11 11:50:47;;;;;;;9.30;3.72;;;486.60;742.40;;;;;;5076564;28;20338;-69
2021/04/11 11:53:24;;;;;;;8.75;4.25;;;486.50;742.40;;;;;;5076078;28;20372;-74
2021/04/11 11:56:22;;;;;;;15.90;4.60;;;486.50;716.80;;;;;;5076129;28;20028;-74
2021/04/11 11:58:51;;;;;;;7.82;4.43;;;486.50;768.00;;;;;;5076003;28;20023;-74
2021/04/11 12:01:46;;;;;;;12.32;4.35;;;486.50;742.40;;;;;;5076230;28;20381;-74
2021/04/11 12:04:15;;;;;;;14.65;5.07;;;486.40;742.40;;;;;;5075337;28;20373;-74
2021/04/11 12:06:47;;;;;;;13.90;5.57;;;486.40;768.00;;;;;;5076380;28;20107;-71
2021/04/11 12:09:25;;;;;;;12.02;4.10;;;486.40;742.40;;;;;;5075945;28;20414;-74
2021/04/11 12:11:59;;;;;;;8.93;3.53;;;486.40;742.40;;;;;;5075863;28;20452;-74
2021/04/11 12:14:36;;;;;;;6.78;3.60;;;486.40;742.40;;;;;;5076340;28;20398;-75
2021/04/11 12:17:30;;;;;;;7.03;3.90;;;486.40;768.00;;;;;;5075675;28;20364;-74
2021/04/11 12:19:59;;;;;;;;;;;486.40;768.00;;;;;;5076285;28;20337;-71
2021/04/11 12:22:41;;;;;;;15.45;5.25;;;486.50;768.00;;;;;;5075252;28;20272;-74
2021/04/11 12:25:26;;;;;;;7.88;4.13;;;486.50;793.60;;;;;;5075461;28;20411;-74
2021/04/11 12:27:52;;;;;;;10.25;3.78;;;486.60;768.00;;;;;;5075373;28;20435;-75
2021/04/11 12:30:32;;;;;;;11.27;4.75;;;486.50;742.40;;;;;;5075341;28;20370;-74
2021/04/11 12:33:10;;;;;;;14.57;5.80;;;486.50;742.40;;;;;;5075758;28;20388;-75
2021/04/11 12:36:02;;;;;;;11.70;5.28;;;486.50;742.40;;;;;;5075391;28;20381;-74
2021/04/11 12:38:31;;;;;;;14.38;5.35;;;486.50;768.00;;;;;;5075967;28;20349;-74
2021/04/11 12:41:12;;;;;;;9.25;4.78;;;486.40;793.60;;;;;;5075854;28;20353;-74
2021/04/11 12:43:44;;;;;;;12.15;5.70;;;486.40;768.00;;;;;;5075204;28;20346;-74
2021/04/11 12:46:13;;;;;;;14.13;5.63;;;486.40;793.60;;;;;;5075349;28;20411;-73
2021/04/11 12:48:46;;;;;;;12.10;6.25;;;486.40;768.00;;;;;;5074895;28;20354;-72
2021/04/11 12:51:37;;;;;;;8.50;5.32;;;461.70;793.60;;;;;;5074836;28;20393;-72
2021/04/11 12:54:08;;;;;;;9.80;5.32;;;461.60;742.40;;;;;;5074578;28;20364;-74
2021/04/11 12:56:39;;;;;;;14.13;6.28;;;461.50;742.40;;;;;;5074083;28;20435;-73
2021/04/11 12:59:40;;;;;;;11.80;5.57;;;461.50;768.00;;;;;;5074759;28;20356;-72
2021/04/11 13:02:18;;;;;;;12.45;6.15;;;461.50;793.60;;;;;;4993227;28;20383;-73
2021/04/11 13:04:56;;;;;;;16.63;7.75;;;461.40;793.60;;;;;;4993316;28;20460;-75
2021/04/11 13:07:38;;;;;;;141.10;15.90;;;461.40;819.20;;;;;;4993533;28;20516;-77
2021/04/11 13:10:22;;;;;;;45.05;12.38;;;461.20;870.40;;;;;;4993156;28;20117;-75
2021/04/11 13:12:54;;;;;;;21.77;9.32;;;460.80;1152.00;;;;;;4993473;28;20353;-76
2021/04/11 13:15:48;;;;;;;14.93;8.10;;;436.00;1228.80;;;;;;4993260;28;20424;-75
2021/04/11 13:18:20;;;;;;;17.23;7.40;;;435.60;1305.60;;;;;;4993118;28;20371;-75